Time;durP1;ratioP1;P1;durP2;ratioP2;P2;SDS_P1;SDS_P2;PMS_P1;PMS_P2;Temp;Humidity;BMP_temperature;BMP_pressure;BME280_temperature;BME280_humidity;BME280_pressure;Samples;Min_cycle;Max_cycle;Signal;HPM_P1;HPM_P2
2021/07/30 00:04:19;;;;;;;9.55;2.78;;;15.90;99.90;;;;;;12530413;28;20068;-83
2021/07/30 00:10:21;;;;;;;9.63;2.45;;;15.80;99.90;;;;;;12533377;28;20094;-84
2021/07/30 00:16:23;;;;;;;10.95;2.55;;;15.60;99.90;;;;;;12535226;28;20064;-84
2021/07/30 00:22:25;;;;;;;7.82;2.85;;;15.50;99.90;;;;;;12525983;28;20536;-84
2021/07/30 00:28:27;;;;;;;11.77;3.10;;;15.40;99.90;;;;;;12530162;28;20049;-84
2021/07/30 00:34:28;;;;;;;10.98;2.97;;;15.40;99.90;;;;;;12538146;28;20114;-85
2021/07/30 00:40:30;;;;;;;10.75;3.05;;;15.30;99.90;;;;;;12542696;28;20127;-84
2021/07/30 00:46:33;;;;;;;8.45;3.15;;;15.20;99.90;;;;;;12539645;28;20154;-84
2021/07/30 00:52:35;;;;;;;10.10;3.30;;;15.40;99.90;;;;;;12532903;28;20037;-84
2021/07/30 00:58:37;;;;;;;9.25;3.38;;;15.20;99.90;;;;;;12538680;28;20049;-84
2021/07/30 01:04:39;;;;;;;7.22;2.97;;;15.30;99.90;;;;;;12528295;28;20093;-83
2021/07/30 01:10:41;;;;;;;8.20;3.15;;;15.20;99.90;;;;;;12535087;28;20045;-84
2021/07/30 01:16:42;;;;;;;9.57;3.55;;;15.20;99.90;;;;;;12524256;28;20099;-84
2021/07/30 01:22:48;;;;;;;8.38;3.28;;;15.20;99.90;;;;;;12534336;28;20241;-83
2021/07/30 01:28:50;;;;;;;7.68;3.53;;;15.10;99.90;;;;;;12527707;28;20045;-84
2021/07/30 01:34:52;;;;;;;9.27;3.85;;;15.00;99.90;;;;;;12536682;28;20494;-84
2021/07/30 01:40:54;;;;;;;11.00;3.78;;;14.90;99.90;;;;;;12542296;28;20242;-84
2021/07/30 01:46:56;;;;;;;11.80;4.05;;;14.90;99.90;;;;;;12543515;28;20053;-85
2021/07/30 01:52:57;;;;;;;9.98;3.80;;;14.90;99.90;;;;;;12533837;28;20053;-84
2021/07/30 01:58:59;;;;;;;7.88;3.78;;;14.70;99.90;;;;;;12534928;28;20613;-84
2021/07/30 02:05:01;;;;;;;10.63;3.83;;;14.70;99.90;;;;;;12545668;28;20091;-85
2021/07/30 02:11:10;;;;;;;8.60;3.90;;;14.60;99.90;;;;;;12541843;28;20179;-84
2021/07/30 02:17:12;;;;;;;17.73;4.47;;;14.60;99.90;;;;;;12537869;28;20356;-83
2021/07/30 02:23:14;;;;;;;11.13;3.70;;;14.60;99.90;;;;;;12526799;28;20703;-85
2021/07/30 02:29:16;;;;;;;14.27;4.75;;;14.60;99.90;;;;;;12544745;28;20073;-83
2021/07/30 02:35:18;;;;;;;8.18;3.75;;;14.50;99.90;;;;;;12535267;28;20585;-84
2021/07/30 02:41:19;;;;;;;8.73;4.13;;;14.50;99.90;;;;;;12539465;28;20496;-85
2021/07/30 02:47:21;;;;;;;8.23;3.80;;;14.40;99.90;;;;;;12536443;28;20071;-83
2021/07/30 02:53:23;;;;;;;10.68;4.43;;;14.40;99.90;;;;;;12538147;28;20104;-84
2021/07/30 02:59:25;;;;;;;10.13;3.90;;;14.30;99.90;;;;;;12537927;28;20091;-84
2021/07/30 03:05:26;;;;;;;10.75;4.93;;;14.30;99.90;;;;;;12546583;28;20045;-84
2021/07/30 03:11:28;;;;;;;9.88;4.53;;;14.20;99.90;;;;;;12543506;28;20045;-83
2021/07/30 03:17:30;;;;;;;10.80;4.60;;;14.30;99.90;;;;;;12563119;28;20127;-84
2021/07/30 03:23:32;;;;;;;6.82;4.07;;;14.20;99.90;;;;;;12556294;28;20045;-84
2021/07/30 03:29:34;;;;;;;10.32;4.63;;;14.20;99.90;;;;;;12540998;28;20295;-84
2021/07/30 03:35:35;;;;;;;10.70;5.10;;;14.20;99.90;;;;;;12524365;28;20099;-83
2021/07/30 03:41:37;;;;;;;8.85;3.75;;;14.20;99.90;;;;;;12528196;28;20125;-84
2021/07/30 03:47:39;;;;;;;7.65;3.60;;;14.20;99.90;;;;;;12523261;28;20097;-84
2021/07/30 03:53:41;;;;;;;10.85;4.00;;;14.10;99.90;;;;;;12516482;28;20370;-83
2021/07/30 03:59:43;;;;;;;11.88;4.95;;;14.20;99.90;;;;;;12527995;28;20112;-84
2021/07/30 04:05:44;;;;;;;12.25;4.13;;;14.20;99.90;;;;;;12514265;28;20867;-84
2021/07/30 04:11:46;;;;;;;9.70;3.90;;;14.20;99.90;;;;;;12531673;28;20040;-84
2021/07/30 04:17:48;;;;;;;9.18;4.32;;;14.20;99.90;;;;;;12542677;28;20106;-83
2021/07/30 04:23:50;;;;;;;8.60;3.65;;;14.20;99.90;;;;;;12534545;28;20132;-84
2021/07/30 04:29:52;;;;;;;11.20;3.83;;;14.30;99.90;;;;;;12532466;28;20175;-83
2021/07/30 04:35:53;;;;;;;9.82;3.88;;;14.30;99.90;;;;;;12538394;28;20040;-84
2021/07/30 04:41:55;;;;;;;10.18;4.18;;;14.40;99.90;;;;;;12533797;28;20092;-83
2021/07/30 04:47:57;;;;;;;14.38;4.15;;;14.40;99.90;;;;;;12531204;28;20041;-83
2021/07/30 04:53:59;;;;;;;11.63;4.15;;;14.60;99.90;;;;;;12529345;28;20440;-83
2021/07/30 05:00:01;;;;;;;12.27;4.28;;;14.60;99.90;;;;;;12536964;28;20126;-83
2021/07/30 05:06:17;;;;;;;10.80;4.10;;;14.70;99.90;;;;;;12540070;28;20052;-83
2021/07/30 05:12:19;;;;;;;9.57;4.10;;;14.80;99.90;;;;;;12523881;28;20067;-84
2021/07/30 05:18:21;;;;;;;10.77;3.65;;;14.90;99.90;;;;;;12538862;28;20044;-83
2021/07/30 05:24:22;;;;;;;12.05;4.30;;;15.00;99.90;;;;;;12537186;28;20051;-84
2021/07/30 05:30:25;;;;;;;13.05;3.78;;;15.10;99.90;;;;;;12540646;28;20077;-84
2021/07/30 05:36:27;;;;;;;8.02;3.72;;;15.30;99.90;;;;;;12539822;28;20199;-83
2021/07/30 05:42:28;;;;;;;11.40;3.90;;;15.30;99.90;;;;;;12530422;28;20120;-84
2021/07/30 05:48:31;;;;;;;6.10;3.38;;;15.50;99.90;;;;;;12530491;28;20053;-84
2021/07/30 05:54:33;;;;;;;12.65;3.90;;;15.70;99.90;;;;;;12534914;28;20077;-83
2021/07/30 06:00:35;;;;;;;14.32;4.20;;;15.80;99.90;;;;;;12535444;28;20071;-84
2021/07/30 06:06:37;;;;;;;10.07;3.75;;;16.10;99.90;;;;;;12540641;28;20057;-85
2021/07/30 06:12:39;;;;;;;9.30;3.80;;;16.40;99.90;;;;;;12533628;28;20032;-85
2021/07/30 06:18:41;;;;;;;10.13;3.53;;;16.60;99.90;;;;;;12540551;28;20147;-84
2021/07/30 06:24:43;;;;;;;8.57;3.45;;;16.70;99.90;;;;;;12542884;28;20136;-84
2021/07/30 06:30:44;;;;;;;7.13;3.30;;;16.60;99.90;;;;;;12544391;28;20041;-83
2021/07/30 06:36:47;;;;;;;8.70;3.20;;;16.50;99.90;;;;;;12550629;28;20717;-84
2021/07/30 06:42:49;;;;;;;8.93;3.22;;;16.60;99.90;;;;;;12550511;28;20411;-84
2021/07/30 06:48:50;;;;;;;11.07;3.00;;;16.80;99.90;;;;;;12551836;28;20057;-83
2021/07/30 06:54:55;;;;;;;9.98;3.47;;;16.90;99.90;;;;;;12550356;28;20102;-85
2021/07/30 07:00:57;;;;;;;9.40;2.85;;;17.20;99.90;;;;;;12536869;28;20113;-85
2021/07/30 07:06:59;;;;;;;10.07;3.05;;;17.50;99.90;;;;;;12559688;28;20051;-84
2021/07/30 07:13:01;;;;;;;9.00;2.75;;;17.50;99.90;;;;;;12570970;28;20045;-84
2021/07/30 07:19:04;;;;;;;13.15;3.30;;;17.70;99.90;;;;;;12545609;28;20124;-85
2021/07/30 07:25:07;;;;;;;8.95;2.85;;;18.00;99.90;;;;;;12539699;28;20041;-84
2021/07/30 07:31:08;;;;;;;8.77;3.10;;;18.20;99.90;;;;;;12546029;28;20131;-84
2021/07/30 07:37:10;;;;;;;7.13;2.85;;;18.50;99.90;;;;;;12542921;28;20110;-84
2021/07/30 07:43:12;;;;;;;8.98;3.00;;;18.70;99.90;;;;;;12545790;28;20143;-85
2021/07/30 07:49:14;;;;;;;8.57;3.05;;;18.70;99.90;;;;;;12548351;28;20133;-85
2021/07/30 07:55:16;;;;;;;8.90;2.80;;;18.70;99.90;;;;;;12560238;28;20119;-85
2021/07/30 08:01:18;;;;;;;9.98;3.47;;;18.90;99.90;;;;;;12548948;28;20083;-84
2021/07/30 08:07:20;;;;;;;6.57;2.95;;;19.10;99.90;;;;;;12550920;28;20106;-84
2021/07/30 08:13:22;;;;;;;9.88;3.13;;;19.30;99.90;;;;;;12550935;28;20056;-84
2021/07/30 08:19:24;;;;;;;9.32;3.03;;;19.30;99.90;;;;;;12551943;28;20082;-85
2021/07/30 08:25:26;;;;;;;9.32;2.75;;;19.50;99.90;;;;;;12549617;28;20057;-85
2021/07/30 08:31:28;;;;;;;9.25;3.05;;;19.60;99.90;;;;;;12553904;28;20069;-85
2021/07/30 08:37:29;;;;;;;7.20;2.90;;;19.60;99.90;;;;;;12559190;28;20257;-85
2021/07/30 08:43:31;;;;;;;9.25;3.00;;;19.90;99.90;;;;;;12554330;28;20045;-85
2021/07/30 08:49:35;;;;;;;8.65;2.88;;;20.00;99.90;;;;;;12556505;28;20625;-85
2021/07/30 08:55:36;;;;;;;9.37;2.90;;;20.20;99.90;;;;;;12551994;28;20056;-85
2021/07/30 09:01:38;;;;;;;8.27;2.45;;;20.40;99.90;;;;;;12556048;28;20634;-85
2021/07/30 09:07:41;;;;;;;7.78;2.40;;;20.60;99.90;;;;;;12554964;28;20103;-85
2021/07/30 09:13:43;;;;;;;10.00;2.70;;;20.80;99.90;;;;;;12540057;28;20037;-85
2021/07/30 09:20:03;;;;;;;10.05;2.40;;;20.90;99.90;;;;;;12543836;28;20056;-85
2021/07/30 09:26:05;;;;;;;9.65;2.70;;;20.80;99.90;;;;;;12546137;28;20154;-85
2021/07/30 09:32:12;;;;;;;7.63;2.03;;;20.90;99.90;;;;;;12543698;28;20095;-84
2021/07/30 09:38:16;;;;;;;8.20;2.10;;;21.30;99.90;;;;;;12543749;28;20048;-83
2021/07/30 09:44:18;;;;;;;8.35;1.90;;;21.30;99.90;;;;;;12562905;28;20044;-85
2021/07/30 09:50:21;;;;;;;8.13;2.77;;;21.30;99.90;;;;;;12545668;28;20052;-86
2021/07/30 09:56:23;;;;;;;4.65;1.52;;;21.40;99.90;;;;;;12544583;28;20133;-85
2021/07/30 10:02:29;;;;;;;4.95;1.60;;;21.60;99.90;;;;;;12557914;28;20631;-85
2021/07/30 10:08:33;;;;;;;7.25;1.77;;;21.70;99.90;;;;;;12546166;28;20061;-85
2021/07/30 10:14:35;;;;;;;11.52;2.05;;;21.80;99.90;;;;;;12547100;28;20068;-86
2021/07/30 10:20:38;;;;;;;4.17;1.50;;;22.00;99.90;;;;;;12548486;28;20040;-85
2021/07/30 10:26:41;;;;;;;6.25;1.50;;;22.50;99.90;;;;;;12553570;28;20135;-83
2021/07/30 10:32:50;;;;;;;5.82;1.60;;;22.70;99.90;;;;;;12550885;28;20119;-85
2021/07/30 10:39:07;;;;;;;8.07;1.67;;;22.80;99.90;;;;;;12558905;28;20053;-83
2021/07/30 10:45:18;;;;;;;6.97;1.90;;;23.00;99.90;;;;;;12573878;28;20080;-84
2021/07/30 10:51:23;;;;;;;8.98;1.88;;;23.00;99.90;;;;;;12546151;28;20048;-85
2021/07/30 10:57:55;;;;;;;6.28;1.63;;;23.10;99.90;;;;;;12543543;28;20086;-85
2021/07/30 11:03:58;;;;;;;8.43;1.75;;;23.00;99.90;;;;;;12535858;28;20128;-87
2021/07/30 11:10:14;;;;;;;7.13;1.55;;;23.30;99.90;;;;;;12549913;28;20318;-84
2021/07/30 11:16:23;;;;;;;7.72;1.83;;;23.40;99.90;;;;;;12546578;28;20079;-84
2021/07/30 11:22:26;;;;;;;6.65;1.90;;;23.70;99.90;;;;;;12552110;28;20049;-85
2021/07/30 11:28:28;;;;;;;6.65;1.98;;;23.80;99.90;;;;;;12549683;28;20078;-83
2021/07/30 11:34:42;;;;;;;6.03;2.13;;;24.00;99.90;;;;;;12545753;28;20508;-83
2021/07/30 11:40:44;;;;;;;6.72;1.88;;;24.60;99.90;;;;;;12546478;28;20462;-84
2021/07/30 11:46:53;;;;;;;7.15;1.98;;;24.00;99.90;;;;;;12543598;28;20535;-85
2021/07/30 11:53:04;;;;;;;4.40;1.42;;;23.80;99.90;;;;;;12548856;28;20041;-84
2021/07/30 11:59:06;;;;;;;4.20;1.67;;;24.00;99.90;;;;;;12545723;28;20148;-83
2021/07/30 12:05:08;;;;;;;3.95;1.48;;;24.20;99.90;;;;;;12540521;28;20079;-83
2021/07/30 12:11:10;;;;;;;5.13;1.50;;;24.80;99.90;;;;;;12473360;28;20138;-84
2021/07/30 12:17:17;;;;;;;6.35;2.03;;;25.10;99.90;;;;;;12471701;28;20128;-84
2021/07/30 12:23:20;;;;;;;6.80;1.77;;;24.80;99.90;;;;;;12491497;28;20620;-82
2021/07/30 12:29:36;;;;;;;4.60;1.50;;;24.70;99.90;;;;;;12473862;28;20054;-84
2021/07/30 12:35:38;;;;;;;5.10;1.77;;;24.10;99.90;;;;;;12480127;28;20034;-85
2021/07/30 12:41:51;;;;;;;7.38;1.90;;;24.30;99.90;;;;;;12498533;28;20118;-84
2021/07/30 12:47:52;;;;;;;5.55;1.80;;;23.90;99.90;;;;;;12475102;28;20907;-84
2021/07/30 12:54:14;;;;;;;9.50;1.45;;;23.90;99.90;;;;;;12481181;28;20041;-85
2021/07/30 13:00:16;;;;;;;6.72;1.50;;;23.70;99.90;;;;;;12472179;28;20194;-84
2021/07/30 13:06:20;;;;;;;5.72;1.90;;;23.40;99.90;;;;;;12484039;28;20077;-83
2021/07/30 13:12:25;;;;;;;5.22;1.85;;;23.70;99.90;;;;;;12535090;28;20041;-83
2021/07/30 13:18:27;;;;;;;4.85;1.80;;;24.20;99.90;;;;;;12537230;28;20195;-84
2021/07/30 13:24:29;;;;;;;5.18;1.65;;;23.60;99.90;;;;;;12543604;28;20186;-84
2021/07/30 13:30:31;;;;;;;4.18;1.65;;;23.50;99.90;;;;;;12505077;28;21004;-84
2021/07/30 13:36:36;;;;;;;7.28;1.88;;;24.00;99.90;;;;;;12532219;28;20098;-85
2021/07/30 13:42:38;;;;;;;5.45;1.70;;;23.60;99.90;;;;;;12524817;28;20041;-83
2021/07/30 13:48:40;;;;;;;5.30;1.92;;;24.20;99.90;;;;;;12423458;28;20044;-85
2021/07/30 13:54:42;;;;;;;6.43;1.50;;;24.50;99.90;;;;;;12524972;28;20083;-84
2021/07/30 14:00:45;;;;;;;4.75;1.83;;;24.70;99.90;;;;;;12520267;28;20060;-84
2021/07/30 14:06:47;;;;;;;6.75;1.70;;;24.70;99.90;;;;;;12534427;28;20060;-84
2021/07/30 14:12:49;;;;;;;4.38;1.52;;;24.60;99.90;;;;;;12523110;28;20040;-85
2021/07/30 14:18:51;;;;;;;3.15;1.50;;;25.50;99.90;;;;;;12534101;28;20471;-85
2021/07/30 14:24:53;;;;;;;3.50;1.77;;;25.80;99.90;;;;;;12525639;28;20059;-85
2021/07/30 14:30:55;;;;;;;3.72;1.70;;;25.20;99.90;;;;;;12532250;28;20113;-85
2021/07/30 14:36:56;;;;;;;6.18;1.85;;;24.60;99.90;;;;;;12538554;28;20448;-84
2021/07/30 14:42:58;;;;;;;5.22;2.03;;;24.30;99.90;;;;;;12537198;28;20072;-86
2021/07/30 14:49:01;;;;;;;5.13;1.98;;;24.10;99.90;;;;;;12548106;28;20076;-84
2021/07/30 14:55:03;;;;;;;4.10;1.60;;;23.90;99.90;;;;;;12542535;28;20170;-83
2021/07/30 15:01:05;;;;;;;7.07;1.80;;;23.90;99.90;;;;;;12541233;28;20687;-85
2021/07/30 15:07:07;;;;;;;4.85;1.90;;;23.90;99.90;;;;;;12540438;28;20057;-85
2021/07/30 15:13:09;;;;;;;4.05;1.98;;;23.70;99.90;;;;;;12539395;28;20037;-84
2021/07/30 15:19:12;;;;;;;6.43;2.25;;;23.70;99.90;;;;;;12542863;28;20081;-84
2021/07/30 15:25:14;;;;;;;;;;;23.70;99.90;;;;;;12544426;28;20552;-84
2021/07/30 15:31:16;;;;;;;7.18;2.28;;;23.70;99.90;;;;;;12563135;28;20798;-84
2021/07/30 15:37:18;;;;;;;4.40;2.20;;;23.70;99.90;;;;;;12540848;28;20113;-85
2021/07/30 15:43:19;;;;;;;5.13;2.30;;;23.70;99.90;;;;;;12547483;28;20254;-84
2021/07/30 15:49:21;;;;;;;5.55;2.20;;;24.10;99.90;;;;;;12542758;28;20068;-83
2021/07/30 15:55:24;;;;;;;4.60;1.73;;;24.50;99.90;;;;;;12537599;28;20044;-85
2021/07/30 16:01:26;;;;;;;3.83;1.90;;;25.20;99.90;;;;;;12539950;28;20364;-84
2021/07/30 16:07:28;;;;;;;6.78;1.85;;;25.50;99.90;;;;;;12528701;28;20052;-84
2021/07/30 16:13:30;;;;;;;3.70;2.07;;;25.10;99.90;;;;;;12543610;28;20120;-84
2021/07/30 16:19:32;;;;;;;5.47;2.13;;;25.50;99.90;;;;;;12543203;28;20124;-85
2021/07/30 16:25:35;;;;;;;;;;;25.50;99.90;;;;;;12547344;28;20408;-84
2021/07/30 16:31:37;;;;;;;7.05;2.63;;;25.30;99.90;;;;;;12532960;28;19925;-85
2021/07/30 16:37:41;;;;;;;4.30;2.28;;;25.50;99.90;;;;;;12565511;28;20287;-85
2021/07/30 16:43:44;;;;;;;8.48;2.17;;;25.10;99.90;;;;;;12555355;28;20139;-85
2021/07/30 16:49:46;;;;;;;5.38;2.20;;;25.10;99.90;;;;;;12534989;28;20053;-84
2021/07/30 16:55:48;;;;;;;4.88;2.13;;;24.80;99.90;;;;;;12526801;28;20036;-83
2021/07/30 17:01:50;;;;;;;5.83;1.83;;;24.80;99.90;;;;;;12531324;28;20036;-84
2021/07/30 17:07:53;;;;;;;6.30;1.92;;;24.50;99.90;;;;;;12527144;28;20060;-85
2021/07/30 17:13:55;;;;;;;6.55;2.30;;;24.20;99.90;;;;;;12526195;28;20523;-84
2021/07/30 17:19:59;;;;;;;4.63;2.10;;;23.90;99.90;;;;;;12528712;28;20051;-84
2021/07/30 17:26:01;;;;;;;3.85;2.05;;;23.70;99.90;;;;;;12536920;28;20052;-84
2021/07/30 17:32:03;;;;;;;4.78;2.05;;;23.70;99.90;;;;;;12536071;28;20132;-84
2021/07/30 17:38:05;;;;;;;5.13;2.10;;;23.60;99.90;;;;;;12536003;28;20982;-84
2021/07/30 17:44:07;;;;;;;5.68;2.17;;;23.50;99.90;;;;;;12546226;28;20078;-84
2021/07/30 17:50:10;;;;;;;6.18;2.20;;;23.30;99.90;;;;;;12526798;28;20106;-84
2021/07/30 17:56:13;;;;;;;4.70;2.00;;;23.20;99.90;;;;;;12537891;28;20093;-84
2021/07/30 18:02:15;;;;;;;5.70;2.30;;;23.10;99.90;;;;;;12533490;28;20076;-84
2021/07/30 18:08:17;;;;;;;6.83;2.27;;;22.90;99.90;;;;;;12543558;28;20091;-85
2021/07/30 18:14:20;;;;;;;4.95;2.72;;;22.80;99.90;;;;;;12539421;28;20174;-84
2021/07/30 18:20:22;;;;;;;4.03;2.23;;;22.80;99.90;;;;;;12539749;28;20111;-84
2021/07/30 18:26:23;;;;;;;7.93;2.33;;;22.70;99.90;;;;;;12546765;28;20048;-84
2021/07/30 18:32:25;;;;;;;8.43;2.65;;;22.70;99.90;;;;;;12538189;28;20062;-84
2021/07/30 18:38:27;;;;;;;7.13;2.55;;;22.60;99.90;;;;;;12541724;28;20068;-84
2021/07/30 18:44:29;;;;;;;3.75;2.30;;;22.70;99.90;;;;;;12547972;28;20083;-84
2021/07/30 18:50:31;;;;;;;5.05;2.25;;;22.50;99.90;;;;;;12537731;28;20142;-84
2021/07/30 18:56:33;;;;;;;3.70;2.20;;;22.40;99.90;;;;;;12548783;28;20046;-84
2021/07/30 19:02:36;;;;;;;3.80;2.15;;;22.30;99.90;;;;;;12546404;28;20995;-85
2021/07/30 19:08:38;;;;;;;5.85;2.35;;;22.40;99.90;;;;;;12542657;28;20089;-84
2021/07/30 19:14:39;;;;;;;7.13;2.58;;;22.40;99.90;;;;;;12550135;28;20127;-83
2021/07/30 19:20:44;;;;;;;8.07;2.70;;;22.30;99.90;;;;;;12544179;28;20037;-84
2021/07/30 19:26:46;;;;;;;6.13;2.78;;;22.20;99.90;;;;;;12551998;28;20077;-85
2021/07/30 19:32:48;;;;;;;6.70;2.78;;;22.10;99.90;;;;;;12556547;28;20112;-84
2021/07/30 19:38:50;;;;;;;9.75;2.55;;;21.80;99.90;;;;;;12580687;28;20090;-84
2021/07/30 19:44:52;;;;;;;5.03;2.67;;;21.70;99.90;;;;;;12544228;28;20051;-84
2021/07/30 19:50:54;;;;;;;6.18;2.80;;;21.60;99.90;;;;;;12534219;28;20066;-84
2021/07/30 19:56:59;;;;;;;5.25;2.95;;;21.40;99.90;;;;;;12528733;28;20337;-84
2021/07/30 20:03:04;;;;;;;5.95;3.10;;;21.40;99.90;;;;;;12538790;28;20041;-83
2021/07/30 20:09:06;;;;;;;3.58;2.65;;;21.30;99.90;;;;;;12541693;28;20049;-84
2021/07/30 20:15:08;;;;;;;6.63;2.75;;;21.40;99.90;;;;;;12542595;28;20153;-84
2021/07/30 20:21:18;;;;;;;8.27;3.05;;;21.40;99.90;;;;;;12518794;28;20179;-84
2021/07/30 20:27:20;;;;;;;6.30;2.70;;;21.30;99.90;;;;;;12530561;28;20456;-84
2021/07/30 20:33:22;;;;;;;5.78;2.75;;;21.50;99.90;;;;;;12515086;28;20053;-84
2021/07/30 20:39:24;;;;;;;5.05;1.77;;;21.40;99.90;;;;;;12526855;28;20060;-84
2021/07/30 20:45:26;;;;;;;4.25;2.00;;;20.80;99.90;;;;;;12517751;28;20380;-84
2021/07/30 20:51:28;;;;;;;3.67;1.60;;;20.20;99.90;;;;;;12531646;28;20102;-84
2021/07/30 20:57:29;;;;;;;6.63;1.67;;;19.40;99.90;;;;;;12529297;28;20071;-83
2021/07/30 21:03:32;;;;;;;3.00;1.60;;;18.70;99.90;;;;;;12538717;28;20129;-84
2021/07/30 21:09:34;;;;;;;3.10;1.63;;;18.40;99.90;;;;;;12515985;28;20065;-84
2021/07/30 21:15:38;;;;;;;2.08;1.38;;;18.20;99.90;;;;;;12546164;28;20079;-84
2021/07/30 21:21:40;;;;;;;3.10;1.50;;;18.20;99.90;;;;;;12530368;28;20452;-83
2021/07/30 21:27:42;;;;;;;5.18;2.22;;;17.80;99.90;;;;;;12524444;28;20085;-83
2021/07/30 21:33:44;;;;;;;4.07;2.05;;;17.90;99.90;;;;;;12537301;28;20081;-84
2021/07/30 21:39:45;;;;;;;4.90;2.10;;;17.30;99.90;;;;;;12533018;28;20049;-84
2021/07/30 21:45:49;;;;;;;4.50;1.60;;;17.00;99.90;;;;;;12530645;28;20097;-84
2021/07/30 21:51:51;;;;;;;;;;;16.80;99.90;;;;;;12529948;28;20045;-84
2021/07/30 21:57:53;;;;;;;4.55;1.83;;;16.90;99.90;;;;;;12540536;28;20342;-84
2021/07/30 22:03:55;;;;;;;4.25;2.20;;;17.00;99.90;;;;;;12533055;28;20049;-83
2021/07/30 22:09:57;;;;;;;3.28;1.83;;;16.90;99.90;;;;;;12547611;28;20121;-83
2021/07/30 22:15:59;;;;;;;3.42;1.95;;;17.10;99.90;;;;;;12543410;28;20041;-85
2021/07/30 22:22:01;;;;;;;3.75;2.00;;;17.10;99.90;;;;;;12544250;28;20055;-84
2021/07/30 22:28:03;;;;;;;5.45;2.10;;;17.20;99.90;;;;;;12538774;28;20094;-83
2021/07/30 22:34:05;;;;;;;5.13;2.10;;;17.20;99.90;;;;;;12541229;28;20123;-83
2021/07/30 22:40:16;;;;;;;4.95;2.20;;;17.10;99.90;;;;;;12540852;28;20105;-84
2021/07/30 22:46:18;;;;;;;3.90;1.90;;;17.10;99.90;;;;;;12539603;28;20132;-83
2021/07/30 22:52:20;;;;;;;3.60;1.95;;;17.00;99.90;;;;;;12546033;28;20128;-83
2021/07/30 22:58:21;;;;;;;3.65;1.98;;;16.80;99.90;;;;;;12567804;28;20091;-83
2021/07/30 23:04:23;;;;;;;7.80;2.60;;;16.60;99.90;;;;;;12534937;28;20208;-84
2021/07/30 23:10:25;;;;;;;5.20;2.70;;;16.50;99.90;;;;;;12537613;28;20072;-84
2021/07/30 23:16:27;;;;;;;7.10;2.47;;;16.50;99.90;;;;;;12532542;28;20110;-84
2021/07/30 23:22:29;;;;;;;4.70;2.10;;;16.50;99.90;;;;;;12541890;28;20908;-84
2021/07/30 23:28:32;;;;;;;5.35;2.40;;;16.50;99.90;;;;;;12532681;28;20102;-84
2021/07/30 23:34:33;;;;;;;5.13;2.72;;;16.50;99.90;;;;;;12530040;28;20130;-84
2021/07/30 23:40:36;;;;;;;6.65;2.60;;;16.50;99.90;;;;;;12534047;28;20045;-84
2021/07/30 23:46:38;;;;;;;6.95;2.70;;;16.40;99.90;;;;;;12517827;28;20052;-84
2021/07/30 23:52:40;;;;;;;5.68;2.53;;;16.30;99.90;;;;;;12534080;28;20041;-84
2021/07/30 23:58:42;;;;;;;6.68;2.70;;;16.30;99.90;;;;;;12525952;28;20159;-84
